createdAt,value
2023-04-29T00:00:32.899Z,7.30
2023-04-29T00:03:01.710Z,7.53
2023-04-29T00:05:31.227Z,7.90
2023-04-29T00:07:59.345Z,7.43
2023-04-29T00:10:27.342Z,7.47
2023-04-29T00:12:55.313Z,7.40
2023-04-29T00:15:23.346Z,8.73
2023-04-29T00:17:51.296Z,8.33
2023-04-29T00:20:19.359Z,8.50
2023-04-29T00:22:49.493Z,9.43
2023-04-29T00:25:17.738Z,9.60
2023-04-29T00:27:45.743Z,9.50
2023-04-29T00:30:13.771Z,10.50
2023-04-29T00:32:42.009Z,10.30
2023-04-29T00:35:10.647Z,10.13
2023-04-29T00:37:38.951Z,10.60
2023-04-29T00:40:10.263Z,9.90
2023-04-29T00:42:39.153Z,10.47
2023-04-29T00:45:08.393Z,10.97
2023-04-29T00:47:36.430Z,10.37
2023-04-29T00:50:04.723Z,11.00
2023-04-29T00:52:32.901Z,10.37
2023-04-29T00:55:01.220Z,11.57
2023-04-29T00:57:30.723Z,11.13
2023-04-29T00:59:59.563Z,11.57
2023-04-29T01:02:29.580Z,11.77
2023-04-29T01:04:57.802Z,11.90
2023-04-29T01:07:31.692Z,11.30
2023-04-29T01:10:04.792Z,12.67
2023-04-29T01:12:40.367Z,11.93
2023-04-29T01:15:13.792Z,11.63
2023-04-29T01:17:45.331Z,10.77
2023-04-29T01:20:14.816Z,10.97
2023-04-29T01:22:43.144Z,10.60
2023-04-29T01:25:13.084Z,11.10
2023-04-29T01:28:08.902Z,10.50
2023-04-29T01:30:47.268Z,10.43
2023-04-29T01:33:19.417Z,10.00
2023-04-29T01:35:58.711Z,9.27
2023-04-29T01:38:34.252Z,10.17
2023-04-29T01:41:11.754Z,10.13
2023-04-29T01:43:40.950Z,10.23
2023-04-29T01:46:19.719Z,10.83
2023-04-29T01:48:48.213Z,10.40
2023-04-29T01:51:16.445Z,9.27
2023-04-29T01:53:44.484Z,9.57
2023-04-29T01:56:14.062Z,10.10
2023-04-29T01:59:02.356Z,9.17
2023-04-29T02:01:33.839Z,8.27
2023-04-29T02:04:02.414Z,8.40
2023-04-29T02:06:32.214Z,9.03
2023-04-29T02:09:03.090Z,8.30
2023-04-29T02:11:33.150Z,8.20
2023-04-29T02:14:01.556Z,8.83
2023-04-29T02:16:29.853Z,9.83
2023-04-29T02:19:01.038Z,10.30
2023-04-29T02:21:29.002Z,9.87
2023-04-29T02:23:57.016Z,11.10
2023-04-29T02:26:26.345Z,13.23
2023-04-29T02:28:58.237Z,14.90
2023-04-29T02:31:26.587Z,15.53
2023-04-29T02:33:55.756Z,16.10
2023-04-29T02:36:24.629Z,17.30
2023-04-29T02:38:55.255Z,17.23
2023-04-29T02:41:23.709Z,17.60
2023-04-29T02:43:51.677Z,18.30
2023-04-29T02:46:21.420Z,19.07
2023-04-29T02:48:49.459Z,18.70
2023-04-29T02:51:17.372Z,19.13
2023-04-29T02:53:45.416Z,19.23
2023-04-29T02:56:13.401Z,18.37
2023-04-29T02:58:42.300Z,20.53
2023-04-29T03:01:10.358Z,19.83
2023-04-29T03:03:40.358Z,21.33
2023-04-29T03:06:08.721Z,20.17
2023-04-29T03:08:36.736Z,20.47
2023-04-29T03:11:04.817Z,21.63
2023-04-29T03:13:33.218Z,21.27
2023-04-29T03:16:01.827Z,21.20
2023-04-29T03:18:30.275Z,22.37
2023-04-29T03:20:59.898Z,20.87
2023-04-29T03:23:28.072Z,22.67
2023-04-29T03:25:57.065Z,21.43
2023-04-29T03:28:26.563Z,21.60
2023-04-29T03:30:54.612Z,22.53
2023-04-29T03:33:22.849Z,23.20
2023-04-29T03:35:51.658Z,21.80
2023-04-29T03:38:24.586Z,22.13
2023-04-29T03:40:52.726Z,22.20
2023-04-29T03:43:21.386Z,23.17
2023-04-29T03:45:49.681Z,21.37
2023-04-29T03:48:21.463Z,21.70
2023-04-29T03:50:49.623Z,21.33
2023-04-29T03:53:18.559Z,21.97
2023-04-29T03:55:48.498Z,21.80
2023-04-29T03:58:17.477Z,23.00
2023-04-29T04:00:45.923Z,23.53
2023-04-29T04:03:19.874Z,24.53
2023-04-29T04:05:47.927Z,23.97
2023-04-29T04:08:17.749Z,25.47
2023-04-29T04:10:55.086Z,26.43
2023-04-29T04:13:34.413Z,26.53
2023-04-29T04:16:03.621Z,27.80
2023-04-29T04:18:32.437Z,28.77
2023-04-29T04:21:06.822Z,29.23
2023-04-29T04:23:35.149Z,31.40
2023-04-29T04:26:06.225Z,33.53
2023-04-29T04:28:42.977Z,33.73
2023-04-29T04:31:16.952Z,33.20
2023-04-29T04:33:45.109Z,35.83
2023-04-29T04:36:13.998Z,36.73
2023-04-29T04:38:41.981Z,37.60
2023-04-29T04:41:14.580Z,38.83
2023-04-29T04:43:47.821Z,38.60
2023-04-29T04:46:22.743Z,39.53
2023-04-29T04:49:06.134Z,41.50
2023-04-29T04:51:35.993Z,42.00
2023-04-29T04:54:04.069Z,42.33
2023-04-29T04:56:37.591Z,42.47
2023-04-29T04:59:07.333Z,41.33
2023-04-29T05:01:38.215Z,43.47
2023-04-29T05:04:06.764Z,43.43
2023-04-29T05:06:34.929Z,44.07
2023-04-29T05:09:04.772Z,43.40
2023-04-29T05:11:32.955Z,45.67
2023-04-29T05:14:14.850Z,45.80
2023-04-29T05:16:43.783Z,45.03
2023-04-29T05:19:11.905Z,45.63
2023-04-29T05:21:41.659Z,41.70
2023-04-29T05:24:11.557Z,39.97
2023-04-29T05:26:39.612Z,40.23
2023-04-29T05:29:08.415Z,37.13
2023-04-29T05:31:47.594Z,36.87
2023-04-29T05:34:15.799Z,36.17
2023-04-29T05:36:45.533Z,35.50
2023-04-29T05:39:13.573Z,35.83
2023-04-29T05:41:43.493Z,34.53
2023-04-29T05:44:16.993Z,34.40
2023-04-29T05:46:51.755Z,33.90
2023-04-29T05:49:20.493Z,33.63
2023-04-29T05:51:52.418Z,33.43
2023-04-29T05:54:20.552Z,34.40
2023-04-29T05:56:52.018Z,34.17
2023-04-29T05:59:20.042Z,35.33
2023-04-29T06:01:58.483Z,33.37
2023-04-29T06:04:27.231Z,35.50
2023-04-29T06:07:09.164Z,34.87
2023-04-29T06:09:50.344Z,31.60
2023-04-29T06:12:22.238Z,31.20
2023-04-29T06:14:50.499Z,31.07
2023-04-29T06:17:20.176Z,29.93
2023-04-29T06:19:48.316Z,33.70
2023-04-29T06:22:16.422Z,31.43
2023-04-29T06:24:52.748Z,33.70
2023-04-29T06:27:36.788Z,30.20
2023-04-29T06:30:05.638Z,30.10
2023-04-29T06:32:35.241Z,30.00
2023-04-29T06:35:03.416Z,29.83
2023-04-29T06:37:52.790Z,27.50
2023-04-29T06:40:45.184Z,27.50
2023-04-29T06:43:43.328Z,25.20
2023-04-29T06:46:31.333Z,25.70
2023-04-29T06:49:14.221Z,26.30
2023-04-29T06:51:43.089Z,25.70
2023-04-29T06:54:11.279Z,26.20
2023-04-29T06:56:39.472Z,25.27
2023-04-29T06:59:12.554Z,25.33
2023-04-29T07:01:43.412Z,23.27
2023-04-29T07:04:14.310Z,22.43
2023-04-29T07:06:46.853Z,20.93
2023-04-29T07:09:15.486Z,21.80
2023-04-29T07:11:43.856Z,21.87
2023-04-29T07:14:12.244Z,21.80
2023-04-29T07:16:40.879Z,19.93
2023-04-29T07:19:11.696Z,19.57
2023-04-29T07:21:41.690Z,20.33
2023-04-29T07:24:09.955Z,18.40
2023-04-29T07:26:38.542Z,18.97
2023-04-29T07:29:08.336Z,19.23
2023-04-29T07:31:38.276Z,20.50
2023-04-29T07:34:07.122Z,19.73
2023-04-29T07:36:35.594Z,18.87
2023-04-29T07:39:05.546Z,20.20
2023-04-29T07:41:33.831Z,19.70
2023-04-29T07:44:02.321Z,16.90
2023-04-29T07:46:31.401Z,18.10
2023-04-29T07:48:59.841Z,19.33
2023-04-29T07:51:29.144Z,18.20
2023-04-29T07:53:57.464Z,18.63
2023-04-29T07:56:27.432Z,17.53
2023-04-29T07:58:55.750Z,18.10
2023-04-29T08:01:24.195Z,18.00
2023-04-29T08:03:53.450Z,16.93
2023-04-29T08:06:23.832Z,17.23
2023-04-29T08:08:52.796Z,16.40
2023-04-29T08:11:22.215Z,17.50
2023-04-29T08:13:57.370Z,15.43
2023-04-29T08:16:26.280Z,16.50
2023-04-29T08:18:54.819Z,16.30
2023-04-29T08:21:23.060Z,15.50
2023-04-29T08:23:51.243Z,16.00
2023-04-29T08:26:19.776Z,15.17
2023-04-29T08:28:48.098Z,14.90
2023-04-29T08:31:21.828Z,14.67
2023-04-29T08:33:50.349Z,15.60
2023-04-29T08:36:18.423Z,14.17
2023-04-29T08:38:47.150Z,14.37
2023-04-29T08:41:16.820Z,13.93
2023-04-29T08:43:44.911Z,14.23
2023-04-29T08:46:13.966Z,14.73
2023-04-29T08:48:45.543Z,14.77
2023-04-29T08:51:14.000Z,14.83
2023-04-29T08:53:41.985Z,14.20
2023-04-29T08:56:14.909Z,14.77
2023-04-29T08:58:43.474Z,14.60
2023-04-29T09:01:11.761Z,14.43
2023-04-29T09:03:46.393Z,15.90
2023-04-29T09:06:14.950Z,14.07
2023-04-29T09:08:43.155Z,14.67
2023-04-29T09:11:12.097Z,15.53
2023-04-29T09:13:40.259Z,15.70
2023-04-29T09:16:12.359Z,17.00
2023-04-29T09:18:46.772Z,17.07
2023-04-29T09:21:16.478Z,16.80
2023-04-29T09:23:44.866Z,17.00
2023-04-29T09:26:12.967Z,17.03
2023-04-29T09:28:43.652Z,16.87
2023-04-29T09:31:12.081Z,17.10
2023-04-29T09:33:54.918Z,16.60
2023-04-29T09:36:40.595Z,13.57
2023-04-29T09:39:12.496Z,15.37
2023-04-29T09:41:41.689Z,15.17
2023-04-29T09:44:10.570Z,15.77
2023-04-29T09:46:39.127Z,15.43
2023-04-29T09:49:24.650Z,14.20
2023-04-29T09:51:57.116Z,14.63
2023-04-29T09:54:28.365Z,13.30
2023-04-29T09:56:57.813Z,13.43
2023-04-29T09:59:26.398Z,12.90
2023-04-29T10:01:55.842Z,12.53
2023-04-29T10:04:27.342Z,12.10
2023-04-29T10:06:56.299Z,12.87
2023-04-29T10:09:24.985Z,12.97
2023-04-29T10:11:54.851Z,12.63
2023-04-29T10:14:24.804Z,13.37
2023-04-29T10:17:00.376Z,13.23
2023-04-29T10:19:35.320Z,13.43
2023-04-29T10:22:10.626Z,13.67
2023-04-29T10:24:41.622Z,14.67
2023-04-29T10:27:12.299Z,14.20
2023-04-29T10:29:41.565Z,14.40
2023-04-29T10:32:10.998Z,15.27
2023-04-29T10:34:40.668Z,16.73
2023-04-29T10:37:10.154Z,17.40
2023-04-29T10:40:01.039Z,17.27
2023-04-29T10:42:33.082Z,18.43
2023-04-29T10:45:26.903Z,17.10
2023-04-29T10:48:18.923Z,17.80
2023-04-29T10:51:04.395Z,17.03
2023-04-29T10:53:32.552Z,17.53
2023-04-29T10:56:05.870Z,19.17
2023-04-29T10:58:39.165Z,18.73
2023-04-29T11:01:08.510Z,17.67
2023-04-29T11:03:58.836Z,19.37
2023-04-29T11:06:41.503Z,19.27
2023-04-29T11:09:11.993Z,19.33
2023-04-29T11:11:44.413Z,20.50
2023-04-29T11:14:14.122Z,20.33
2023-04-29T11:16:49.813Z,23.13
2023-04-29T11:19:18.649Z,23.20
2023-04-29T11:21:48.913Z,22.10
2023-04-29T11:24:18.565Z,21.40
2023-04-29T11:26:46.752Z,22.33
2023-04-29T11:29:15.306Z,21.97
2023-04-29T11:31:43.433Z,20.37
2023-04-29T11:34:11.708Z,21.90
2023-04-29T11:36:39.768Z,21.77
2023-04-29T11:39:09.340Z,22.00
2023-04-29T11:41:37.576Z,22.37
2023-04-29T11:44:07.499Z,26.03
2023-04-29T11:46:35.575Z,27.33
2023-04-29T11:49:03.640Z,27.93
2023-04-29T11:51:32.703Z,26.87
2023-04-29T11:54:00.832Z,27.67
2023-04-29T11:56:30.329Z,24.27
2023-04-29T11:59:01.358Z,23.40
2023-04-29T12:01:29.407Z,21.23
2023-04-29T12:04:01.081Z,20.57
2023-04-29T12:06:30.616Z,20.13
2023-04-29T12:09:00.414Z,19.20
2023-04-29T12:11:29.932Z,19.10
2023-04-29T12:13:58.162Z,17.40
2023-04-29T12:16:26.663Z,17.80
2023-04-29T12:18:55.129Z,16.97
2023-04-29T12:21:23.521Z,17.57
2023-04-29T12:23:52.454Z,18.53
2023-04-29T12:26:21.112Z,17.57
2023-04-29T12:28:55.031Z,19.33
2023-04-29T12:31:24.276Z,19.90
2023-04-29T12:33:55.346Z,20.20
2023-04-29T12:36:24.430Z,20.60
2023-04-29T12:38:54.656Z,21.50
2023-04-29T12:41:37.767Z,24.03
2023-04-29T12:44:07.457Z,27.17
2023-04-29T12:46:37.016Z,32.93
2023-04-29T12:49:05.824Z,38.17
2023-04-29T12:51:34.166Z,39.00
2023-04-29T12:54:04.962Z,44.67
2023-04-29T12:56:32.959Z,43.00
2023-04-29T12:59:08.392Z,42.73
2023-04-29T13:01:36.569Z,42.17
2023-04-29T13:04:06.319Z,42.83
2023-04-29T13:06:35.006Z,41.60
2023-04-29T13:09:03.296Z,45.50
2023-04-29T13:11:34.307Z,44.83
2023-04-29T13:14:02.952Z,44.40
2023-04-29T13:16:32.564Z,45.63
2023-04-29T13:19:12.363Z,48.33
2023-04-29T13:21:49.136Z,49.63
2023-04-29T13:24:18.313Z,47.23
2023-04-29T13:26:49.120Z,48.43
2023-04-29T13:29:18.968Z,47.80
2023-04-29T13:31:48.451Z,48.93
2023-04-29T13:34:16.666Z,49.33
2023-04-29T13:36:44.728Z,45.30
2023-04-29T13:39:14.818Z,41.03
2023-04-29T13:41:45.960Z,37.70
2023-04-29T13:46:47.488Z,35.97
2023-04-29T13:49:42.359Z,37.73
2023-04-29T13:52:50.570Z,38.40
2023-04-29T13:58:20.615Z,42.63
2023-04-29T14:00:38.267Z,43.57
2023-04-29T14:03:05.527Z,45.73
2023-04-29T14:05:35.291Z,48.03
2023-04-29T14:08:03.753Z,49.47
2023-04-29T14:10:32.122Z,49.57
2023-04-29T14:13:00.117Z,47.80
2023-04-29T14:15:28.203Z,49.80
2023-04-29T14:17:56.628Z,49.27
2023-04-29T14:20:24.686Z,49.83
2023-04-29T14:22:54.291Z,48.03
2023-04-29T14:25:22.349Z,47.10
2023-04-29T14:27:50.430Z,45.73
2023-04-29T14:30:19.399Z,43.57
2023-04-29T14:32:47.536Z,41.10
2023-04-29T14:35:16.306Z,41.73
2023-04-29T14:37:44.292Z,41.70
2023-04-29T14:40:14.147Z,42.20
2023-04-29T14:42:42.424Z,41.23
2023-04-29T14:45:11.462Z,40.00
2023-04-29T14:47:39.494Z,42.27
2023-04-29T14:50:09.787Z,39.80
2023-04-29T14:52:37.939Z,40.27
2023-04-29T14:55:06.359Z,40.97
2023-04-29T14:57:35.725Z,40.97
2023-04-29T15:00:04.202Z,39.93
2023-04-29T15:02:32.318Z,38.60
2023-04-29T15:05:00.535Z,39.03
2023-04-29T15:07:31.543Z,37.87
2023-04-29T15:09:59.736Z,34.33
2023-04-29T15:12:27.800Z,31.67
2023-04-29T15:14:57.200Z,33.00
2023-04-29T15:17:25.625Z,32.23
2023-04-29T15:19:53.788Z,35.20
2023-04-29T15:22:21.739Z,36.17
2023-04-29T15:24:52.137Z,30.17
2023-04-29T15:27:21.248Z,33.97
2023-04-29T15:29:49.236Z,34.97
2023-04-29T15:32:18.887Z,31.37
2023-04-29T15:34:46.959Z,30.17
2023-04-29T15:37:15.007Z,32.27
2023-04-29T15:39:43.121Z,33.03
2023-04-29T15:42:11.102Z,34.17
2023-04-29T15:44:39.107Z,32.50
2023-04-29T15:47:07.197Z,32.73
2023-04-29T15:49:37.200Z,34.20
2023-04-29T15:52:05.755Z,33.67
2023-04-29T15:54:33.817Z,32.17
2023-04-29T15:57:03.432Z,35.60
2023-04-29T15:59:31.518Z,34.57
2023-04-29T16:01:59.577Z,34.50
2023-04-29T16:04:27.643Z,36.03
2023-04-29T16:06:57.088Z,34.73
2023-04-29T16:09:25.103Z,35.03
2023-04-29T16:11:53.924Z,32.83
2023-04-29T16:14:21.908Z,31.47
2023-04-29T16:16:50.638Z,30.57
2023-04-29T16:19:18.750Z,33.60
2023-04-29T16:21:46.844Z,32.10
2023-04-29T16:24:16.630Z,31.73
2023-04-29T16:26:44.686Z,31.93
2023-04-29T16:29:13.431Z,31.73
2023-04-29T16:31:41.497Z,32.83
2023-04-29T16:34:09.800Z,32.17
2023-04-29T16:36:37.888Z,32.77
2023-04-29T16:39:06.216Z,32.83
2023-04-29T16:41:35.647Z,31.93
2023-04-29T16:44:03.696Z,31.13
2023-04-29T16:46:32.497Z,31.17
2023-04-29T16:49:00.731Z,31.93
2023-04-29T16:51:29.179Z,31.00
2023-04-29T16:53:57.240Z,30.77
2023-04-29T16:56:25.765Z,31.13
2023-04-29T16:58:55.159Z,29.50
2023-04-29T17:01:23.193Z,28.87
2023-04-29T17:03:51.482Z,29.60
2023-04-29T17:06:19.725Z,27.80
2023-04-29T17:08:50.098Z,29.23
2023-04-29T17:11:19.454Z,27.73
2023-04-29T17:13:47.453Z,27.43
2023-04-29T17:16:17.033Z,27.50
2023-04-29T17:18:45.260Z,27.83
2023-04-29T17:21:13.276Z,26.47
2023-04-29T17:23:41.361Z,26.17
2023-04-29T17:26:09.456Z,26.07
2023-04-29T17:28:37.606Z,25.87
2023-04-29T17:31:06.377Z,27.27
2023-04-29T17:33:35.871Z,27.57
2023-04-29T17:36:04.880Z,25.47
2023-04-29T17:38:33.776Z,26.67
2023-04-29T17:41:02.453Z,24.77
2023-04-29T17:43:33.212Z,25.73
2023-04-29T17:46:01.309Z,26.93
2023-04-29T17:48:29.327Z,27.57
2023-04-29T17:50:58.797Z,28.50
2023-04-29T17:53:28.524Z,26.90
2023-04-29T17:55:56.532Z,27.67
2023-04-29T17:58:24.603Z,26.13
2023-04-29T18:00:52.687Z,25.57
2023-04-29T18:03:20.914Z,24.83
2023-04-29T18:05:49.032Z,24.87
2023-04-29T18:08:18.442Z,23.23
2023-04-29T18:10:46.609Z,23.37
2023-04-29T18:13:14.614Z,22.10
2023-04-29T18:15:42.909Z,22.77
2023-04-29T18:18:11.067Z,24.70
2023-04-29T18:20:40.695Z,22.83
2023-04-29T18:23:08.684Z,24.70
2023-04-29T18:25:39.456Z,24.43
2023-04-29T18:28:23.562Z,24.23
2023-04-29T18:30:53.748Z,24.50
2023-04-29T18:33:23.234Z,26.43
2023-04-29T18:35:51.635Z,27.63
2023-04-29T18:38:19.812Z,27.40
2023-04-29T18:40:49.478Z,28.73
2023-04-29T18:43:18.309Z,29.00
2023-04-29T18:45:46.687Z,28.90
2023-04-29T18:48:15.043Z,32.97
2023-04-29T18:50:43.639Z,37.20
2023-04-29T18:53:11.773Z,35.47
2023-04-29T18:55:39.860Z,32.73
2023-04-29T18:58:09.302Z,31.60
2023-04-29T19:00:37.476Z,31.13
2023-04-29T19:03:06.153Z,28.53
2023-04-29T19:05:34.806Z,26.50
2023-04-29T19:08:02.970Z,29.13
2023-04-29T19:10:30.965Z,29.97
2023-04-29T19:12:59.064Z,30.40
2023-04-29T19:15:28.634Z,30.43
2023-04-29T19:17:57.011Z,30.37
2023-04-29T19:20:25.118Z,31.43
2023-04-29T19:22:53.255Z,31.40
2023-04-29T19:25:21.769Z,31.03
2023-04-29T19:27:51.065Z,32.27
2023-04-29T19:30:19.241Z,32.60
2023-04-29T19:32:48.789Z,32.77
2023-04-29T19:35:17.063Z,32.37
2023-04-29T19:37:45.321Z,33.77
2023-04-29T19:40:13.526Z,34.60
2023-04-29T19:42:41.613Z,33.73
2023-04-29T19:45:12.478Z,33.33
2023-04-29T19:47:40.629Z,34.40
2023-04-29T19:50:10.750Z,32.97
2023-04-29T19:52:38.756Z,33.33
2023-04-29T19:55:09.052Z,33.77
2023-04-29T19:57:38.381Z,35.37
2023-04-29T20:00:08.586Z,36.73
2023-04-29T20:02:37.229Z,37.40
2023-04-29T20:05:06.190Z,35.70
2023-04-29T20:07:35.734Z,34.53
2023-04-29T20:10:03.981Z,36.00
2023-04-29T20:12:32.391Z,38.23
2023-04-29T20:15:00.733Z,38.27
2023-04-29T20:17:28.940Z,37.33
2023-04-29T20:19:56.962Z,37.20
2023-04-29T20:22:25.032Z,36.43
2023-04-29T20:24:54.427Z,38.07
2023-04-29T20:27:22.433Z,38.47
2023-04-29T20:29:50.404Z,38.50
2023-04-29T20:32:18.532Z,38.20
2023-04-29T20:34:46.714Z,36.87
2023-04-29T20:37:14.743Z,38.97
2023-04-29T20:39:43.116Z,37.90
2023-04-29T20:42:12.745Z,38.00
2023-04-29T20:44:40.818Z,39.27
2023-04-29T20:47:09.087Z,36.77
2023-04-29T20:49:37.690Z,37.77
2023-04-29T20:52:07.321Z,38.53
2023-04-29T20:54:35.836Z,39.27
2023-04-29T20:57:05.530Z,37.97
2023-04-29T20:59:35.291Z,39.40
2023-04-29T21:02:03.435Z,39.83
2023-04-29T21:04:31.433Z,39.73
2023-04-29T21:06:59.530Z,43.70
2023-04-29T21:09:27.545Z,41.53
2023-04-29T21:11:57.899Z,39.93
2023-04-29T21:14:26.252Z,39.63
2023-04-29T21:16:55.810Z,42.73
2023-04-29T21:19:23.918Z,41.33
2023-04-29T21:21:52.163Z,42.20
2023-04-29T21:24:20.370Z,41.37
2023-04-29T21:26:50.247Z,41.60
2023-04-29T21:29:19.806Z,41.07
2023-04-29T21:31:48.001Z,41.93
2023-04-29T21:34:17.731Z,41.93
2023-04-29T21:36:45.928Z,41.53
2023-04-29T21:39:13.983Z,41.17
2023-04-29T21:41:42.689Z,40.87
2023-04-29T21:44:10.807Z,41.70
2023-04-29T21:46:38.987Z,40.87
2023-04-29T21:49:07.491Z,41.83
2023-04-29T21:51:37.190Z,42.50
2023-04-29T21:54:08.357Z,40.83
2023-04-29T21:56:36.703Z,41.37
2023-04-29T21:59:04.821Z,41.47
2023-04-29T22:01:49.040Z,40.97
2023-04-29T22:04:17.399Z,42.63
2023-04-29T22:06:46.860Z,41.70
2023-04-29T22:09:16.132Z,42.30
2023-04-29T22:11:44.204Z,39.93
2023-04-29T22:14:12.261Z,40.83
2023-04-29T22:16:40.299Z,40.17
2023-04-29T22:19:08.634Z,41.63
2023-04-29T22:21:38.203Z,40.73
2023-04-29T22:24:08.018Z,41.87
2023-04-29T22:26:36.054Z,38.23
2023-04-29T22:29:04.470Z,41.20
2023-04-29T22:31:32.696Z,40.43
2023-04-29T22:34:00.786Z,39.73
2023-04-29T22:36:28.808Z,43.70
2023-04-29T22:38:56.933Z,42.33
2023-04-29T22:41:26.747Z,42.23
2023-04-29T22:43:57.349Z,42.07
2023-04-29T22:46:25.930Z,45.27
2023-04-29T22:48:53.986Z,45.60
2023-04-29T22:51:22.046Z,45.97
2023-04-29T22:53:50.119Z,44.70
2023-04-29T22:56:18.196Z,44.80
2023-04-29T22:58:47.647Z,42.87
2023-04-29T23:01:15.743Z,46.53
2023-04-29T23:03:43.743Z,43.60
2023-04-29T23:06:11.833Z,43.47
2023-04-29T23:08:39.849Z,53.43
2023-04-29T23:11:07.922Z,50.63
2023-04-29T23:13:35.995Z,48.33
2023-04-29T23:16:05.662Z,48.90
2023-04-29T23:18:33.816Z,46.60
2023-04-29T23:21:01.739Z,47.03
2023-04-29T23:23:29.732Z,44.40
2023-04-29T23:25:57.854Z,48.47
2023-04-29T23:28:25.881Z,46.70
2023-04-29T23:30:54.524Z,46.50
2023-04-29T23:33:24.009Z,46.30
2023-04-29T23:35:52.534Z,46.33
2023-04-29T23:38:21.027Z,46.13
2023-04-29T23:40:48.997Z,46.40
2023-04-29T23:43:17.194Z,46.20
2023-04-29T23:45:46.135Z,47.00
2023-04-29T23:48:15.727Z,45.23
2023-04-29T23:50:47.274Z,45.50
2023-04-29T23:53:15.795Z,45.77
2023-04-29T23:55:43.846Z,48.00
2023-04-29T23:58:12.023Z,51.10
